sensor_id;sensor_type;location;lat;lon;timestamp;pressure;altitude;pressure_sealevel;temperature;humidity
46015;BME280;36844;51.898;-0.874;2023-03-21T00:01:18;100058.94;;;18.77;
46015;BME280;36844;51.898;-0.874;2023-03-21T00:03:43;100065.50;;;18.77;
46015;BME280;36844;51.898;-0.874;2023-03-21T00:06:11;100060.50;;;18.75;
46015;BME280;36844;51.898;-0.874;2023-03-21T00:08:37;100051.31;;;18.72;
46015;BME280;36844;51.898;-0.874;2023-03-21T00:11:03;100056.31;;;18.70;
46015;BME280;36844;51.898;-0.874;2023-03-21T00:13:29;100045.22;;;18.68;
46015;BME280;36844;51.898;-0.874;2023-03-21T00:16:02;100048.28;;;18.67;
46015;BME280;36844;51.898;-0.874;2023-03-21T00:18:28;100045.25;;;18.65;
46015;BME280;36844;51.898;-0.874;2023-03-21T00:21:00;100047.59;;;18.63;
46015;BME280;36844;51.898;-0.874;2023-03-21T00:23:26;100037.22;;;18.61;
46015;BME280;36844;51.898;-0.874;2023-03-21T00:25:51;100041.84;;;18.61;
46015;BME280;36844;51.898;-0.874;2023-03-21T00:28:17;100032.66;;;18.58;
46015;BME280;36844;51.898;-0.874;2023-03-21T00:30:42;100033.81;;;18.57;
46015;BME280;36844;51.898;-0.874;2023-03-21T00:33:07;100031.53;;;18.56;
46015;BME280;36844;51.898;-0.874;2023-03-21T00:35:32;100033.88;;;18.54;
46015;BME280;36844;51.898;-0.874;2023-03-21T00:37:58;100013.47;;;18.53;
46015;BME280;36844;51.898;-0.874;2023-03-21T00:40:23;100025.44;;;18.52;
46015;BME280;36844;51.898;-0.874;2023-03-21T00:42:48;100017.75;;;18.50;
46015;BME280;36844;51.898;-0.874;2023-03-21T00:45:13;100010.81;;;18.49;
46015;BME280;36844;51.898;-0.874;2023-03-21T00:47:40;100005.84;;;18.48;
46015;BME280;36844;51.898;-0.874;2023-03-21T00:50:05;100013.56;;;18.46;
46015;BME280;36844;51.898;-0.874;2023-03-21T00:52:31;99997.81;;;18.44;
46015;BME280;36844;51.898;-0.874;2023-03-21T00:54:57;100007.81;;;18.44;
46015;BME280;36844;51.898;-0.874;2023-03-21T00:57:22;100010.59;;;18.40;
46015;BME280;36844;51.898;-0.874;2023-03-21T00:59:47;100007.13;;;18.40;
46015;BME280;36844;51.898;-0.874;2023-03-21T01:02:12;100002.91;;;18.39;
46015;BME280;36844;51.898;-0.874;2023-03-21T01:04:38;99997.94;;;18.37;
46015;BME280;36844;51.898;-0.874;2023-03-21T01:07:03;99986.38;;;18.37;
46015;BME280;36844;51.898;-0.874;2023-03-21T01:09:29;99990.66;;;18.34;
46015;BME280;36844;51.898;-0.874;2023-03-21T01:11:54;99984.50;;;18.34;
46015;BME280;36844;51.898;-0.874;2023-03-21T01:14:20;99992.97;;;18.32;
46015;BME280;36844;51.898;-0.874;2023-03-21T01:16:45;99983.41;;;18.31;
46015;BME280;36844;51.898;-0.874;2023-03-21T01:19:12;99981.09;;;18.30;
46015;BME280;36844;51.898;-0.874;2023-03-21T01:21:38;99977.63;;;18.29;
46015;BME280;36844;51.898;-0.874;2023-03-21T01:24:03;99978.78;;;18.28;
46015;BME280;36844;51.898;-0.874;2023-03-21T01:26:28;99965.75;;;18.27;
46015;BME280;36844;51.898;-0.874;2023-03-21T01:28:54;99964.63;;;18.24;
46015;BME280;36844;51.898;-0.874;2023-03-21T01:31:19;99963.88;;;18.24;
46015;BME280;36844;51.898;-0.874;2023-03-21T01:33:44;99961.56;;;18.22;
46015;BME280;36844;51.898;-0.874;2023-03-21T01:36:13;99957.34;;;18.21;
46015;BME280;36844;51.898;-0.874;2023-03-21T01:38:39;99955.09;;;18.20;
46015;BME280;36844;51.898;-0.874;2023-03-21T01:41:05;99943.53;;;18.19;
46015;BME280;36844;51.898;-0.874;2023-03-21T01:43:32;99940.84;;;18.19;
46015;BME280;36844;51.898;-0.874;2023-03-21T01:48:22;99929.34;;;18.15;
46015;BME280;36844;51.898;-0.874;2023-03-21T01:50:48;99925.09;;;18.14;
46015;BME280;36844;51.898;-0.874;2023-03-21T01:53:14;99923.59;;;18.13;
46015;BME280;36844;51.898;-0.874;2023-03-21T01:55:40;99929.00;;;18.13;
46015;BME280;36844;51.898;-0.874;2023-03-21T01:58:05;99921.31;;;18.12;
46015;BME280;36844;51.898;-0.874;2023-03-21T02:00:31;99917.09;;;18.11;
46015;BME280;36844;51.898;-0.874;2023-03-21T02:02:57;99919.00;;;18.10;
46015;BME280;36844;51.898;-0.874;2023-03-21T02:05:36;99914.06;;;18.09;
46015;BME280;36844;51.898;-0.874;2023-03-21T02:08:02;99910.97;;;18.07;
46015;BME280;36844;51.898;-0.874;2023-03-21T02:10:28;99908.69;;;18.05;
46015;BME280;36844;51.898;-0.874;2023-03-21T02:12:55;99899.88;;;18.05;
46015;BME280;36844;51.898;-0.874;2023-03-21T02:15:34;99901.81;;;18.04;
46015;BME280;36844;51.898;-0.874;2023-03-21T02:22:59;99895.28;;;18.02;
46015;BME280;36844;51.898;-0.874;2023-03-21T02:38:46;99884.63;;;17.95;
46015;BME280;36844;51.898;-0.874;2023-03-21T02:41:20;99878.88;;;17.93;
46015;BME280;36844;51.898;-0.874;2023-03-21T02:46:13;99877.38;;;17.92;
46015;BME280;36844;51.898;-0.874;2023-03-21T02:49:02;99869.28;;;17.92;
46015;BME280;36844;51.898;-0.874;2023-03-21T02:51:25;99873.13;;;17.91;
46015;BME280;36844;51.898;-0.874;2023-03-21T02:53:53;99872.38;;;17.90;
46015;BME280;36844;51.898;-0.874;2023-03-21T02:56:20;99865.47;;;17.89;
46015;BME280;36844;51.898;-0.874;2023-03-21T02:58:46;99857.38;;;17.89;
46015;BME280;36844;51.898;-0.874;2023-03-21T03:01:12;99863.19;;;17.88;
46015;BME280;36844;51.898;-0.874;2023-03-21T03:03:37;99856.25;;;17.87;
46015;BME280;36844;51.898;-0.874;2023-03-21T03:06:06;99854.75;;;17.86;
46015;BME280;36844;51.898;-0.874;2023-03-21T03:08:46;99849.38;;;17.86;
46015;BME280;36844;51.898;-0.874;2023-03-21T03:11:23;99851.28;;;17.85;
46015;BME280;36844;51.898;-0.874;2023-03-21T03:18:44;99843.28;;;17.82;
46015;BME280;36844;51.898;-0.874;2023-03-21T03:21:29;99835.19;;;17.82;
46015;BME280;36844;51.898;-0.874;2023-03-21T03:24:04;99827.53;;;17.80;
46015;BME280;36844;51.898;-0.874;2023-03-21T03:26:40;99830.22;;;17.80;
46015;BME280;36844;51.898;-0.874;2023-03-21T03:29:10;99814.13;;;17.77;
46015;BME280;36844;51.898;-0.874;2023-03-21T03:31:45;99808.72;;;17.77;
46015;BME280;36844;51.898;-0.874;2023-03-21T03:34:12;99819.50;;;17.77;
46015;BME280;36844;51.898;-0.874;2023-03-21T03:36:40;99805.66;;;17.74;
46015;BME280;36844;51.898;-0.874;2023-03-21T03:39:07;99805.66;;;17.74;
46015;BME280;36844;51.898;-0.874;2023-03-21T03:41:34;99805.31;;;17.72;
46015;BME280;36844;51.898;-0.874;2023-03-21T03:44:01;99798.00;;;17.73;
46015;BME280;36844;51.898;-0.874;2023-03-21T03:46:31;99793.78;;;17.72;
46015;BME280;36844;51.898;-0.874;2023-03-21T03:49:18;99794.19;;;17.70;
46015;BME280;36844;51.898;-0.874;2023-03-21T03:52:06;99790.31;;;17.71;
46015;BME280;36844;51.898;-0.874;2023-03-21T03:54:37;99792.69;;;17.69;
46015;BME280;36844;51.898;-0.874;2023-03-21T03:57:03;99786.53;;;17.69;
46015;BME280;36844;51.898;-0.874;2023-03-21T03:59:28;99781.16;;;17.69;
46015;BME280;36844;51.898;-0.874;2023-03-21T04:01:54;99776.16;;;17.67;
46015;BME280;36844;51.898;-0.874;2023-03-21T04:04:19;99784.22;;;17.67;
46015;BME280;36844;51.898;-0.874;2023-03-21T04:06:46;99777.31;;;17.66;
46015;BME280;36844;51.898;-0.874;2023-03-21T04:09:16;99769.66;;;17.65;
46015;BME280;36844;51.898;-0.874;2023-03-21T04:11:42;99767.75;;;17.65;
46015;BME280;36844;51.898;-0.874;2023-03-21T04:14:07;99768.91;;;17.64;
46015;BME280;36844;51.898;-0.874;2023-03-21T04:16:32;99770.06;;;17.63;
46015;BME280;36844;51.898;-0.874;2023-03-21T04:18:57;99771.97;;;17.63;
46015;BME280;36844;51.898;-0.874;2023-03-21T04:21:22;99771.97;;;17.63;
46015;BME280;36844;51.898;-0.874;2023-03-21T04:23:47;99768.53;;;17.62;
46015;BME280;36844;51.898;-0.874;2023-03-21T04:26:13;99769.72;;;17.61;
46015;BME280;36844;51.898;-0.874;2023-03-21T04:28:38;99763.56;;;17.61;
46015;BME280;36844;51.898;-0.874;2023-03-21T04:31:04;99768.94;;;17.61;
46015;BME280;36844;51.898;-0.874;2023-03-21T04:33:29;99765.91;;;17.59;
46015;BME280;36844;51.898;-0.874;2023-03-21T04:35:55;99766.66;;;17.59;
46015;BME280;36844;51.898;-0.874;2023-03-21T04:38:26;99755.13;;;17.59;
46015;BME280;36844;51.898;-0.874;2023-03-21T04:40:54;99758.25;;;17.57;
46015;BME280;36844;51.898;-0.874;2023-03-21T04:43:20;99758.25;;;17.57;
46015;BME280;36844;51.898;-0.874;2023-03-21T04:45:45;99740.56;;;17.56;
46015;BME280;36844;51.898;-0.874;2023-03-21T04:48:10;99754.78;;;17.57;
46015;BME280;36844;51.898;-0.874;2023-03-21T04:50:38;99749.78;;;17.55;
46015;BME280;36844;51.898;-0.874;2023-03-21T04:53:03;99751.00;;;17.54;
46015;BME280;36844;51.898;-0.874;2023-03-21T04:55:28;99749.47;;;17.53;
46015;BME280;36844;51.898;-0.874;2023-03-21T04:57:55;99743.31;;;17.53;
46015;BME280;36844;51.898;-0.874;2023-03-21T05:00:21;99736.38;;;17.52;
46015;BME280;36844;51.898;-0.874;2023-03-21T05:02:47;99733.69;;;17.52;
46015;BME280;36844;51.898;-0.874;2023-03-21T05:05:12;99724.13;;;17.51;
46015;BME280;36844;51.898;-0.874;2023-03-21T05:07:38;99724.84;;;17.51;
46015;BME280;36844;51.898;-0.874;2023-03-21T05:10:04;99723.38;;;17.50;
46015;BME280;36844;51.898;-0.874;2023-03-21T05:12:30;99719.91;;;17.50;
46015;BME280;36844;51.898;-0.874;2023-03-21T05:14:55;99724.53;;;17.49;
46015;BME280;36844;51.898;-0.874;2023-03-21T05:17:20;99729.13;;;17.49;
46015;BME280;36844;51.898;-0.874;2023-03-21T05:19:49;99711.44;;;17.48;
46015;BME280;36844;51.898;-0.874;2023-03-21T05:22:14;99709.97;;;17.47;
46015;BME280;36844;51.898;-0.874;2023-03-21T05:24:43;99711.88;;;17.46;
46015;BME280;36844;51.898;-0.874;2023-03-21T05:27:14;99704.97;;;17.45;
46015;BME280;36844;51.898;-0.874;2023-03-21T05:30:03;99708.81;;;17.44;
46015;BME280;36844;51.898;-0.874;2023-03-21T05:32:29;99704.66;;;17.43;
46015;BME280;36844;51.898;-0.874;2023-03-21T05:34:54;99704.66;;;17.43;
46015;BME280;36844;51.898;-0.874;2023-03-21T05:37:20;99703.09;;;17.42;
46015;BME280;36844;51.898;-0.874;2023-03-21T05:39:45;99693.50;;;17.41;
46015;BME280;36844;51.898;-0.874;2023-03-21T05:42:10;99688.88;;;17.42;
46015;BME280;36844;51.898;-0.874;2023-03-21T05:44:35;99699.28;;;17.40;
46015;BME280;36844;51.898;-0.874;2023-03-21T05:47:01;99690.03;;;17.41;
46015;BME280;36844;51.898;-0.874;2023-03-21T05:49:28;99689.25;;;17.40;
46015;BME280;36844;51.898;-0.874;2023-03-21T05:51:54;99685.09;;;17.39;
46015;BME280;36844;51.898;-0.874;2023-03-21T05:54:20;99687.78;;;17.39;
46015;BME280;36844;51.898;-0.874;2023-03-21T05:56:45;99696.25;;;17.38;
46015;BME280;36844;51.898;-0.874;2023-03-21T05:59:10;99699.78;;;17.35;
46015;BME280;36844;51.898;-0.874;2023-03-21T06:01:35;99706.25;;;17.37;
46015;BME280;36844;51.898;-0.874;2023-03-21T06:04:00;99705.47;;;17.37;
46015;BME280;36844;51.898;-0.874;2023-03-21T06:06:26;99707.41;;;17.36;
46015;BME280;36844;51.898;-0.874;2023-03-21T06:08:51;99694.38;;;17.35;
46015;BME280;36844;51.898;-0.874;2023-03-21T06:11:30;99702.47;;;17.35;
46015;BME280;36844;51.898;-0.874;2023-03-21T06:13:56;99702.47;;;17.35;
46015;BME280;36844;51.898;-0.874;2023-03-21T06:16:21;99699.38;;;17.33;
46015;BME280;36844;51.898;-0.874;2023-03-21T06:18:46;99693.25;;;17.32;
46015;BME280;36844;51.898;-0.874;2023-03-21T06:21:12;99695.94;;;17.32;
46015;BME280;36844;51.898;-0.874;2023-03-21T06:23:37;99697.13;;;17.31;
46015;BME280;36844;51.898;-0.874;2023-03-21T06:26:02;99699.06;;;17.31;
46015;BME280;36844;51.898;-0.874;2023-03-21T06:28:28;99701.75;;;17.31;
46015;BME280;36844;51.898;-0.874;2023-03-21T06:30:53;99706.38;;;17.30;
46015;BME280;36844;51.898;-0.874;2023-03-21T06:33:18;99704.06;;;17.29;
46015;BME280;36844;51.898;-0.874;2023-03-21T06:35:43;99704.81;;;17.29;
46015;BME280;36844;51.898;-0.874;2023-03-21T06:38:09;99712.13;;;17.29;
46015;BME280;36844;51.898;-0.874;2023-03-21T06:40:36;99699.88;;;17.28;
46015;BME280;36844;51.898;-0.874;2023-03-21T06:43:01;99707.19;;;17.27;
46015;BME280;36844;51.898;-0.874;2023-03-21T06:45:27;99701.81;;;17.27;
46015;BME280;36844;51.898;-0.874;2023-03-21T06:47:52;99704.50;;;17.27;
46015;BME280;36844;51.898;-0.874;2023-03-21T06:50:17;99705.31;;;17.24;
46015;BME280;36844;51.898;-0.874;2023-03-21T06:52:43;99708.72;;;17.28;
46015;BME280;36844;51.898;-0.874;2023-03-21T06:55:08;99702.13;;;17.29;
46015;BME280;36844;51.898;-0.874;2023-03-21T06:57:33;99702.53;;;17.31;
46015;BME280;36844;51.898;-0.874;2023-03-21T06:59:58;99693.25;;;17.32;
46015;BME280;36844;51.898;-0.874;2023-03-21T07:02:24;99676.69;;;17.34;
46015;BME280;36844;51.898;-0.874;2023-03-21T07:04:49;99660.94;;;17.36;
46015;BME280;36844;51.898;-0.874;2023-03-21T07:07:14;99669.34;;;17.38;
46015;BME280;36844;51.898;-0.874;2023-03-21T07:09:40;99667.72;;;17.40;
46015;BME280;36844;51.898;-0.874;2023-03-21T07:12:05;99675.75;;;17.44;
46015;BME280;36844;51.898;-0.874;2023-03-21T07:14:30;99667.66;;;17.47;
46015;BME280;36844;51.898;-0.874;2023-03-21T07:16:56;99667.59;;;17.51;
46015;BME280;36844;51.898;-0.874;2023-03-21T07:19:21;99669.03;;;17.55;
46015;BME280;36844;51.898;-0.874;2023-03-21T07:21:46;99663.59;;;17.59;
46015;BME280;36844;51.898;-0.874;2023-03-21T07:24:11;99658.88;;;17.63;
46015;BME280;36844;51.898;-0.874;2023-03-21T07:26:36;99661.13;;;17.68;
46015;BME280;36844;51.898;-0.874;2023-03-21T07:29:02;99664.53;;;17.72;
46015;BME280;36844;51.898;-0.874;2023-03-21T07:31:27;99670.19;;;17.77;
46015;BME280;36844;51.898;-0.874;2023-03-21T07:33:53;99673.16;;;17.83;
46015;BME280;36844;51.898;-0.874;2023-03-21T07:36:18;99667.72;;;17.87;
46015;BME280;36844;51.898;-0.874;2023-03-21T07:38:45;99673.38;;;17.92;
46015;BME280;36844;51.898;-0.874;2023-03-21T07:41:11;99681.38;;;17.96;
46015;BME280;36844;51.898;-0.874;2023-03-21T07:43:36;99682.84;;;18.00;
46015;BME280;36844;51.898;-0.874;2023-03-21T07:46:01;99682.78;;;18.04;
46015;BME280;36844;51.898;-0.874;2023-03-21T07:48:27;99690.03;;;18.07;
46015;BME280;36844;51.898;-0.874;2023-03-21T07:50:52;99688.03;;;18.11;
46015;BME280;36844;51.898;-0.874;2023-03-21T07:53:17;99691.84;;;18.13;
46015;BME280;36844;51.898;-0.874;2023-03-21T07:55:43;99694.47;;;18.17;
46015;BME280;36844;51.898;-0.874;2023-03-21T07:58:08;99692.88;;;18.19;
46015;BME280;36844;51.898;-0.874;2023-03-21T08:00:33;99673.19;;;18.22;
46015;BME280;36844;51.898;-0.874;2023-03-21T08:02:58;99674.25;;;18.25;
46015;BME280;36844;51.898;-0.874;2023-03-21T08:05:25;99679.25;;;18.26;
46015;BME280;36844;51.898;-0.874;2023-03-21T08:07:50;99672.25;;;18.29;
46015;BME280;36844;51.898;-0.874;2023-03-21T08:10:16;99683.41;;;18.31;
46015;BME280;36844;51.898;-0.874;2023-03-21T08:12:41;99675.66;;;18.33;
46015;BME280;36844;51.898;-0.874;2023-03-21T08:15:07;99676.75;;;18.35;
46015;BME280;36844;51.898;-0.874;2023-03-21T08:17:32;99669.78;;;18.38;
46015;BME280;36844;51.898;-0.874;2023-03-21T08:20:00;99678.66;;;18.38;
46015;BME280;36844;51.898;-0.874;2023-03-21T08:22:25;99674.34;;;18.41;
46015;BME280;36844;51.898;-0.874;2023-03-21T08:24:50;99675.44;;;18.43;
46015;BME280;36844;51.898;-0.874;2023-03-21T08:27:16;99680.44;;;18.45;
46015;BME280;36844;51.898;-0.874;2023-03-21T08:29:41;99674.19;;;18.48;
46015;BME280;36844;51.898;-0.874;2023-03-21T08:32:07;99672.69;;;18.47;
46015;BME280;36844;51.898;-0.874;2023-03-21T08:34:32;99674.19;;;18.48;
46015;BME280;36844;51.898;-0.874;2023-03-21T08:36:57;99664.94;;;18.49;
46015;BME280;36844;51.898;-0.874;2023-03-21T08:39:23;99671.84;;;18.50;
46015;BME280;36844;51.898;-0.874;2023-03-21T08:41:48;99655.66;;;18.50;
46015;BME280;36844;51.898;-0.874;2023-03-21T08:44:14;99658.34;;;18.50;
46015;BME280;36844;51.898;-0.874;2023-03-21T08:46:40;99651.81;;;18.51;
46015;BME280;36844;51.898;-0.874;2023-03-21T08:49:06;99654.88;;;18.49;
46015;BME280;36844;51.898;-0.874;2023-03-21T08:51:31;99655.66;;;18.50;
46015;BME280;36844;51.898;-0.874;2023-03-21T08:53:57;99647.56;;;18.50;
46015;BME280;36844;51.898;-0.874;2023-03-21T08:56:22;99639.47;;;18.50;
46015;BME280;36844;51.898;-0.874;2023-03-21T08:58:47;99642.94;;;18.50;
46015;BME280;36844;51.898;-0.874;2023-03-21T09:01:13;99649.50;;;18.49;
46015;BME280;36844;51.898;-0.874;2023-03-21T09:03:39;99644.88;;;18.50;
46015;BME280;36844;51.898;-0.874;2023-03-21T09:06:05;99641.41;;;18.49;
46015;BME280;36844;51.898;-0.874;2023-03-21T09:08:30;99649.50;;;18.49;
46015;BME280;36844;51.898;-0.874;2023-03-21T09:10:55;99648.00;;;18.48;
46015;BME280;36844;51.898;-0.874;2023-03-21T09:13:21;99654.16;;;18.49;
46015;BME280;36844;51.898;-0.874;2023-03-21T09:15:46;99653.38;;;18.48;
46015;BME280;36844;51.898;-0.874;2023-03-21T09:18:12;99647.22;;;18.48;
46015;BME280;36844;51.898;-0.874;2023-03-21T09:20:40;99657.25;;;18.47;
46015;BME280;36844;51.898;-0.874;2023-03-21T09:23:07;99649.56;;;18.46;
46015;BME280;36844;51.898;-0.874;2023-03-21T09:25:32;99645.72;;;18.47;
46015;BME280;36844;51.898;-0.874;2023-03-21T09:27:58;99658.84;;;18.45;
46015;BME280;36844;51.898;-0.874;2023-03-21T09:30:24;99655.38;;;18.44;
46015;BME280;36844;51.898;-0.874;2023-03-21T09:32:49;99651.94;;;18.44;
46015;BME280;36844;51.898;-0.874;2023-03-21T09:35:16;99660.00;;;18.44;
46015;BME280;36844;51.898;-0.874;2023-03-21T09:37:43;99661.19;;;18.43;
46015;BME280;36844;51.898;-0.874;2023-03-21T09:40:34;99666.25;;;18.41;
46015;BME280;36844;51.898;-0.874;2023-03-21T09:45:22;99652.44;;;18.39;
46015;BME280;36844;51.898;-0.874;2023-03-21T09:47:51;99652.44;;;18.39;
46015;BME280;36844;51.898;-0.874;2023-03-21T09:55:25;99647.47;;;18.37;
46015;BME280;36844;51.898;-0.874;2023-03-21T09:58:00;99638.59;;;18.37;
46015;BME280;36844;51.898;-0.874;2023-03-21T10:00:27;99634.38;;;18.36;
46015;BME280;36844;51.898;-0.874;2023-03-21T10:02:55;99618.66;;;18.34;
46015;BME280;36844;51.898;-0.874;2023-03-21T10:05:27;99617.88;;;18.34;
46015;BME280;36844;51.898;-0.874;2023-03-21T10:10:24;99611.72;;;18.33;
46015;BME280;36844;51.898;-0.874;2023-03-21T10:12:51;99614.84;;;18.32;
46015;BME280;36844;51.898;-0.874;2023-03-21T10:15:18;99616.34;;;18.33;
46015;BME280;36844;51.898;-0.874;2023-03-21T10:17:47;99612.16;;;18.32;
46015;BME280;36844;51.898;-0.874;2023-03-21T10:20:21;99607.19;;;18.30;
46015;BME280;36844;51.898;-0.874;2023-03-21T10:22:47;99603.72;;;18.30;
46015;BME280;36844;51.898;-0.874;2023-03-21T10:25:16;99604.56;;;18.27;
46015;BME280;36844;51.898;-0.874;2023-03-21T10:27:42;99599.50;;;18.29;
46015;BME280;36844;51.898;-0.874;2023-03-21T10:30:08;99591.09;;;18.27;
46015;BME280;36844;51.898;-0.874;2023-03-21T10:32:34;99598.00;;;18.28;
46015;BME280;36844;51.898;-0.874;2023-03-21T10:35:00;99600.72;;;18.28;
46015;BME280;36844;51.898;-0.874;2023-03-21T10:37:27;99598.72;;;18.28;
46015;BME280;36844;51.898;-0.874;2023-03-21T10:39:53;99597.56;;;18.29;
46015;BME280;36844;51.898;-0.874;2023-03-21T10:42:20;99603.72;;;18.30;
46015;BME280;36844;51.898;-0.874;2023-03-21T10:44:48;99598.31;;;18.30;
46015;BME280;36844;51.898;-0.874;2023-03-21T10:47:18;99594.03;;;18.32;
46015;BME280;36844;51.898;-0.874;2023-03-21T10:49:43;99594.78;;;18.33;
46015;BME280;36844;51.898;-0.874;2023-03-21T10:52:12;99601.28;;;18.35;
46015;BME280;36844;51.898;-0.874;2023-03-21T10:54:38;99599.34;;;18.36;
46015;BME280;36844;51.898;-0.874;2023-03-21T10:57:21;99584.28;;;18.38;
46015;BME280;36844;51.898;-0.874;2023-03-21T10:59:51;99584.22;;;18.42;
46015;BME280;36844;51.898;-0.874;2023-03-21T11:02:38;99583.78;;;18.43;
46015;BME280;36844;51.898;-0.874;2023-03-21T11:05:04;99582.16;;;18.46;
46015;BME280;36844;51.898;-0.874;2023-03-21T11:07:30;99578.66;;;18.49;
46015;BME280;36844;51.898;-0.874;2023-03-21T11:09:57;99571.31;;;18.49;
46015;BME280;36844;51.898;-0.874;2023-03-21T11:12:29;99579.72;;;18.51;
46015;BME280;36844;51.898;-0.874;2023-03-21T11:14:56;99560.44;;;18.53;
46015;BME280;36844;51.898;-0.874;2023-03-21T11:17:28;99555.41;;;18.55;
46015;BME280;36844;51.898;-0.874;2023-03-21T11:22:24;99555.72;;;18.57;
46015;BME280;36844;51.898;-0.874;2023-03-21T11:24:55;99560.72;;;18.58;
46015;BME280;36844;51.898;-0.874;2023-03-21T11:27:21;99562.97;;;18.60;
46015;BME280;36844;51.898;-0.874;2023-03-21T11:29:47;99560.25;;;18.60;
46015;BME280;36844;51.898;-0.874;2023-03-21T11:39:47;99583.66;;;18.66;
46015;BME280;36844;51.898;-0.874;2023-03-21T11:42:25;99574.81;;;18.66;
46015;BME280;36844;51.898;-0.874;2023-03-21T11:44:56;99568.94;;;18.67;
46015;BME280;36844;51.898;-0.874;2023-03-21T11:47:22;99583.19;;;18.68;
46015;BME280;36844;51.898;-0.874;2023-03-21T11:49:47;99583.19;;;18.68;
46015;BME280;36844;51.898;-0.874;2023-03-21T11:57:17;99580.09;;;18.69;
46015;BME280;36844;51.898;-0.874;2023-03-21T11:59:51;99576.63;;;18.69;
46015;BME280;36844;51.898;-0.874;2023-03-21T12:04:53;99576.63;;;18.69;
46015;BME280;36844;51.898;-0.874;2023-03-21T12:17:53;99577.50;;;18.66;
46015;BME280;36844;51.898;-0.874;2023-03-21T12:25:49;99569.81;;;18.64;
46015;BME280;36844;51.898;-0.874;2023-03-21T12:31:16;99570.56;;;18.65;
46015;BME280;36844;51.898;-0.874;2023-03-21T12:33:48;99554.81;;;18.63;
46015;BME280;36844;51.898;-0.874;2023-03-21T12:36:29;99554.81;;;18.63;
46015;BME280;36844;51.898;-0.874;2023-03-21T12:39:10;99545.97;;;18.63;
46015;BME280;36844;51.898;-0.874;2023-03-21T12:46:54;99548.31;;;18.61;
46015;BME280;36844;51.898;-0.874;2023-03-21T12:51:46;99534.50;;;18.59;
46015;BME280;36844;51.898;-0.874;2023-03-21T12:54:14;99533.00;;;18.58;
46015;BME280;36844;51.898;-0.874;2023-03-21T12:59:33;99536.09;;;18.56;
46015;BME280;36844;51.898;-0.874;2023-03-21T13:02:04;99531.88;;;18.55;
46015;BME280;36844;51.898;-0.874;2023-03-21T13:07:21;99521.53;;;18.54;
46015;BME280;36844;51.898;-0.874;2023-03-21T13:09:49;99528.44;;;18.55;
46015;BME280;36844;51.898;-0.874;2023-03-21T13:14:44;99516.91;;;18.54;
46015;BME280;36844;51.898;-0.874;2023-03-21T13:17:18;99510.75;;;18.54;
46015;BME280;36844;51.898;-0.874;2023-03-21T13:19:47;99510.75;;;18.54;
46015;BME280;36844;51.898;-0.874;2023-03-21T13:22:27;99506.50;;;18.53;
46015;BME280;36844;51.898;-0.874;2023-03-21T13:25:06;99501.13;;;18.53;
46015;BME280;36844;51.898;-0.874;2023-03-21T13:27:40;99507.69;;;18.52;
46015;BME280;36844;51.898;-0.874;2023-03-21T13:35:03;99523.13;;;18.51;
46015;BME280;36844;51.898;-0.874;2023-03-21T13:37:38;99523.88;;;18.52;
46015;BME280;36844;51.898;-0.874;2023-03-21T13:40:05;99528.50;;;18.51;
46015;BME280;36844;51.898;-0.874;2023-03-21T13:42:40;99523.13;;;18.51;
46015;BME280;36844;51.898;-0.874;2023-03-21T13:45:08;99510.81;;;18.50;
46015;BME280;36844;51.898;-0.874;2023-03-21T13:55:34;99508.56;;;18.49;
46015;BME280;36844;51.898;-0.874;2023-03-21T13:58:08;99508.56;;;18.49;
46015;BME280;36844;51.898;-0.874;2023-03-21T14:00:45;99519.34;;;18.49;
46015;BME280;36844;51.898;-0.874;2023-03-21T14:03:29;99522.03;;;18.49;
46015;BME280;36844;51.898;-0.874;2023-03-21T14:05:56;99512.41;;;18.48;
46015;BME280;36844;51.898;-0.874;2023-03-21T14:08:22;99516.66;;;18.49;
46015;BME280;36844;51.898;-0.874;2023-03-21T14:10:51;99517.03;;;18.47;
46015;BME280;36844;51.898;-0.874;2023-03-21T14:13:18;99525.13;;;18.47;
46015;BME280;36844;51.898;-0.874;2023-03-21T14:15:46;99527.09;;;18.47;
46015;BME280;36844;51.898;-0.874;2023-03-21T14:18:13;99518.66;;;18.45;
46015;BME280;36844;51.898;-0.874;2023-03-21T14:20:39;99520.94;;;18.46;
46015;BME280;36844;51.898;-0.874;2023-03-21T14:23:06;99523.28;;;18.44;
46015;BME280;36844;51.898;-0.874;2023-03-21T14:25:33;99518.66;;;18.45;
46015;BME280;36844;51.898;-0.874;2023-03-21T14:28:00;99529.44;;;18.45;
46015;BME280;36844;51.898;-0.874;2023-03-21T14:30:32;99526.75;;;18.45;
46015;BME280;36844;51.898;-0.874;2023-03-21T14:33:12;99525.97;;;18.44;
46015;BME280;36844;51.898;-0.874;2023-03-21T14:35:39;99528.69;;;18.44;
46015;BME280;36844;51.898;-0.874;2023-03-21T14:38:05;99532.56;;;18.43;
46015;BME280;36844;51.898;-0.874;2023-03-21T14:40:32;99531.81;;;18.43;
46015;BME280;36844;51.898;-0.874;2023-03-21T14:42:59;99538.69;;;18.44;
46015;BME280;36844;51.898;-0.874;2023-03-21T14:45:28;99536.78;;;18.44;
46015;BME280;36844;51.898;-0.874;2023-03-21T14:47:58;99527.16;;;18.43;
46015;BME280;36844;51.898;-0.874;2023-03-21T14:50:27;99531.81;;;18.43;
46015;BME280;36844;51.898;-0.874;2023-03-21T14:52:55;99527.16;;;18.43;
46015;BME280;36844;51.898;-0.874;2023-03-21T14:55:20;99529.44;;;18.45;
46015;BME280;36844;51.898;-0.874;2023-03-21T14:57:45;99526.41;;;18.43;
46015;BME280;36844;51.898;-0.874;2023-03-21T15:00:15;99519.09;;;18.43;
46015;BME280;36844;51.898;-0.874;2023-03-21T15:02:42;99512.59;;;18.41;
46015;BME280;36844;51.898;-0.874;2023-03-21T15:05:20;99515.28;;;18.41;
46015;BME280;36844;51.898;-0.874;2023-03-21T15:08:00;99517.97;;;18.41;
46015;BME280;36844;51.898;-0.874;2023-03-21T15:10:27;99515.72;;;18.39;
46015;BME280;36844;51.898;-0.874;2023-03-21T15:12:54;99517.63;;;18.39;
46015;BME280;36844;51.898;-0.874;2023-03-21T15:15:21;99514.22;;;18.38;
46015;BME280;36844;51.898;-0.874;2023-03-21T15:17:47;99518.06;;;18.37;
46015;BME280;36844;51.898;-0.874;2023-03-21T15:20:13;99511.91;;;18.37;
46015;BME280;36844;51.898;-0.874;2023-03-21T15:22:40;99511.13;;;18.36;
46015;BME280;36844;51.898;-0.874;2023-03-21T15:25:12;99498.84;;;18.35;
46015;BME280;36844;51.898;-0.874;2023-03-21T15:27:40;99503.50;;;18.35;
46015;BME280;36844;51.898;-0.874;2023-03-21T15:30:06;99507.38;;;18.34;